Orgoglio — IJDQ — position and weather

sailwx.info

Track history (hours):
 
Tides and Currents Weather Stations Pressure Air Temp Water Temp Dewpoint Dewpoint Depression Visibility Wind Speed Wind Dir Waves Ship Positions

Orgoglio

Last reported at 2018-Mar-13 08:24 UTC. Time now 2018-May-25 14:39 UTC.
Position N 39°39' E 016°39'.
Warning: this ship's position is months out of date.

; draft 2 m.

Type: Fishing. MMSI: 247134150.

Date/timePositionNaut miles runAvg speedWind from/ knotsBaromVisibWave heightAir tempDewpointWater temp
2018-Mar-13 08:24N 39°39' E 016°39'1 2.1
2018-Mar-13 08:00N 39°39' E 016°40'1 2.2
2018-Mar-13 07:25N 39°39' E 016°42'0 0.2
2018-Mar-13 05:46N 39°38' E 016°42'17 0.7
2018-Mar-12 05:10N 39°55' E 016°40'  
2018-Mar-06 11:35N 39°39' E 016°36'0 2.6
2018-Mar-06 11:25N 39°39' E 016°36'1 2.5
2018-Mar-06 10:56N 39°38' E 016°38'1 1.6
2018-Mar-06 10:28N 39°39' E 016°39'1 2.6
2018-Mar-06 09:57N 39°39' E 016°37'1 2.7
2018-Mar-06 09:30N 39°39' E 016°36'3 0.1
2018-Mar-05 12:53N 39°40' E 016°32'5 1.7
2018-Mar-05 10:13N 39°39' E 016°38'14 2.5
2018-Mar-05 04:38N 39°53' E 016°39'  
Track history (hours):
 
Tides and Currents Weather Stations Pressure Air Temp Water Temp Dewpoint Dewpoint Depression Visibility Wind Speed Wind Dir Waves Ship Positions

Orgoglio

Last reported at 2018-Mar-13 08:24 UTC. Time now 2018-May-25 14:39 UTC.
Position N 39°39' E 016°39'.
Warning: this ship's position is months out of date.

; draft 2 m.

Type: Fishing. MMSI: 247134150.

Date/timePositionNaut miles runAvg speedWind from/ knotsBaromVisibWave heightAir tempDewpointWater temp
2018-Mar-13 08:24N 39°39' E 016°39'1 2.1
2018-Mar-13 08:00N 39°39' E 016°40'1 2.2
2018-Mar-13 07:25N 39°39' E 016°42'0 0.2
2018-Mar-13 05:46N 39°38' E 016°42'17 0.7
2018-Mar-12 05:10N 39°55' E 016°40'  
2018-Mar-06 11:35N 39°39' E 016°36'0 2.6
2018-Mar-06 11:25N 39°39' E 016°36'1 2.5
2018-Mar-06 10:56N 39°38' E 016°38'1 1.6
2018-Mar-06 10:28N 39°39' E 016°39'1 2.6
2018-Mar-06 09:57N 39°39' E 016°37'1 2.7
2018-Mar-06 09:30N 39°39' E 016°36'3 0.1
2018-Mar-05 12:53N 39°40' E 016°32'5 1.7
2018-Mar-05 10:13N 39°39' E 016°38'14 2.5
2018-Mar-05 04:38N 39°53' E 016°39'  

Dump ship's entire track history